.
WxDataArchive / Data Records for 2011-01-18
2011-01-17 January 2011 2011-01-19

Data Records for Tuesday, 18 January 2011

Time	Temp	Chill	HIndex	Humid	Dewpt	 Wind 	HiWind	WindDir	Rain 	Barom 
-----	----	-----	------	-----	-----	------	------	-------	-----	----- 
00:00	35.0	35.0	35.0	85	31.0	1	4	90	0.00	29.783 
00:05	35.0	35.0	35.0	86	31.2	1	4	90	0.00	29.783 
00:10	35.0	35.0	35.0	87	31.5	1	4	112	0.00	29.783 
00:15	35.0	35.0	35.0	87	31.5	1	5	112	0.00	29.775 
00:20	35.0	35.0	35.0	87	31.5	2	5	90	0.00	29.775 
00:25	35.0	35.0	35.0	88	31.8	1	4	90	0.00	29.775 
00:30	35.0	35.0	35.0	88	31.8	2	4	90	0.00	29.766 
00:35	35.0	35.0	35.0	88	31.8	1	3	90	0.00	29.766 
00:40	35.0	35.0	35.0	88	31.8	1	4	90	0.00	29.766 
00:45	35.0	35.0	35.0	88	31.8	2	6	90	0.00	29.761 
00:50	35.0	35.0	35.0	89	32.1	3	6	90	0.00	29.761 
00:55	35.2	35.2	35.2	89	32.3	2	5	90	0.00	29.761 
01:00	35.2	35.2	35.2	89	32.3	1	5	112	0.00	29.758 
01:05	35.2	35.2	35.2	90	32.6	1	4	112	0.00	29.758 
01:10	35.2	35.2	35.2	90	32.6	1	3	112	0.00	29.758 
01:15	35.3	35.3	35.3	90	32.7	1	3	112	0.00	29.748 
01:20	35.3	35.3	35.3	90	32.7	1	4	90	0.00	29.748 
01:25	35.5	35.5	35.5	90	32.9	2	6	90	0.00	29.748 
01:30	35.5	35.5	35.5	90	32.9	1	4	68	0.00	29.745 
01:35	35.6	35.6	35.6	91	33.2	1	4	68	0.00	29.745 
01:40	35.6	35.6	35.6	91	33.2	1	4	68	0.00	29.745 
01:45	35.6	35.6	35.6	91	33.2	1	3	90	0.00	29.744 
01:50	35.5	35.5	35.5	91	33.1	1	2	90	0.00	29.744 
01:55	35.5	35.5	35.5	91	33.1	0	2	270	0.00	29.744 
02:00	35.5	35.5	35.5	91	33.1	1	3	270	0.00	29.742 
02:05	35.5	35.5	35.5	91	33.1	0	2	135	0.00	29.742 
02:10	35.5	35.5	35.5	92	33.4	0	2	112	0.00	29.742 
02:15	35.5	35.5	35.5	92	33.4	1	4	112	0.00	29.738 
02:20	35.6	35.6	35.6	92	33.5	1	3	90	0.00	29.738 
02:25	35.6	35.6	35.6	92	33.5	1	3	90	0.00	29.738 
02:30	35.6	35.6	35.6	92	33.5	0	3	90	0.00	29.739 
02:35	35.6	35.6	35.6	92	33.5	1	3	90	0.00	29.739 
02:40	35.6	35.6	35.6	92	33.5	0	1	90	0.00	29.739 
02:45	35.6	35.6	35.6	92	33.5	1	3	90	0.00	29.739 
02:50	35.8	35.8	35.8	93	34.0	1	2	90	0.00	29.739 
02:55	35.8	35.8	35.8	93	34.0	0	2	112	0.00	29.739 
03:00	35.8	35.8	35.8	93	34.0	0	2	112	0.00	29.740 
03:05	35.8	35.8	35.8	93	34.0	0	2	112	0.00	29.740 
03:10	35.8	35.8	35.8	93	34.0	0	1	112	0.00	29.740 
03:15	35.8	35.8	35.8	93	34.0	0	2	112	0.00	29.739 
03:20	35.9	35.9	35.9	93	34.1	1	2	112	0.00	29.739 
03:25	35.9	35.9	35.9	93	34.1	0	2	112	0.01	29.739 
03:30	35.9	35.9	35.9	93	34.1	0	2	112	0.00	29.735 
03:35	35.9	35.9	35.9	94	34.3	0	1	112	0.00	29.735 
03:40	35.9	35.9	35.9	94	34.3	0	2	112	0.00	29.735 
03:45	35.9	35.9	35.9	94	34.3	0	1	112	0.00	29.731 
03:50	36.0	36.0	36.0	94	34.4	0	2	112	0.00	29.731 
03:55	36.0	36.0	36.0	94	34.4	0	3	315	0.00	29.731 
04:00	36.0	36.0	36.0	94	34.4	0	1	315	0.00	29.726 
04:05	36.0	36.0	36.0	94	34.4	0	2	315	0.00	29.726 
04:10	36.2	36.2	36.2	94	34.6	1	3	0	0.00	29.726 
04:15	36.2	36.2	36.2	94	34.6	0	2	315	0.00	29.723 
04:20	36.2	36.2	36.2	94	34.6	0	1	225	0.00	29.723 
04:25	36.2	36.2	36.2	94	34.6	0	3	225	0.00	29.723 
04:30	36.2	36.2	36.2	94	34.6	1	3	90	0.00	29.722 
04:35	36.2	36.2	36.2	94	34.6	0	2	90	0.00	29.722 
04:40	36.2	36.2	36.2	94	34.6	0	2	90	0.00	29.722 
04:45	36.2	36.2	36.2	95	34.9	0	2	90	0.00	29.721 
04:50	36.2	36.2	36.2	95	34.9	0	3	90	0.00	29.721 
04:55	36.2	36.2	36.2	95	34.9	0	2	0	0.00	29.721 
05:00	36.2	36.2	36.2	95	34.9	0	2	0	0.00	29.721 
05:05	36.2	36.2	36.2	95	34.9	0	2	90	0.00	29.721 
05:10	36.2	36.2	36.2	95	34.9	0	2	90	0.00	29.721 
05:15	36.3	36.3	36.3	95	35.0	0	2	248	0.00	29.719 
05:20	36.2	36.2	36.2	95	34.9	0	1	248	0.00	29.719 
05:25	36.2	36.2	36.2	95	34.9	0	1	248	0.00	29.719 
05:30	36.2	36.2	36.2	95	34.9	0	2	248	0.00	29.720 
05:35	36.2	36.2	36.2	95	34.9	0	2	248	0.00	29.720 
05:40	36.2	36.2	36.2	95	34.9	0	2	90	0.00	29.720 
05:45	36.2	36.2	36.2	95	34.9	0	1	22	0.00	29.715 
05:50	36.0	36.0	36.0	95	34.7	0	2	22	0.00	29.715 
05:55	36.0	36.0	36.0	95	34.7	0	1	22	0.00	29.715 
06:00	36.0	36.0	36.0	95	34.7	0	1	22	0.00	29.717 
06:05	36.0	36.0	36.0	95	34.7	0	1	22	0.00	29.717 
06:10	36.0	36.0	36.0	95	34.7	0	1	22	0.00	29.717 
06:15	35.9	35.9	35.9	95	34.6	0	1	22	0.00	29.712 
06:20	35.9	35.9	35.9	95	34.6	0	3	248	0.00	29.712 
06:25	35.9	35.9	35.9	95	34.6	0	1	248	0.00	29.712 
06:30	36.0	36.0	36.0	95	34.7	0	1	248	0.00	29.709 
06:35	36.0	36.0	36.0	95	34.7	0	1	248	0.00	29.709 
06:40	36.0	36.0	36.0	95	34.7	0	1	248	0.00	29.709 
06:45	36.0	36.0	36.0	95	34.7	0	1	248	0.00	29.714 
06:50	36.2	36.2	36.2	95	34.9	0	1	248	0.00	29.714 
06:55	36.2	36.2	36.2	95	34.9	0	2	248	0.00	29.714 
07:00	36.2	36.2	36.2	96	35.2	0	2	248	0.00	29.718 
07:05	36.3	36.3	36.3	95	35.0	0	2	248	0.00	29.718 
07:10	36.3	36.3	36.3	95	35.0	0	1	248	0.00	29.718 
07:15	36.3	36.3	36.3	95	35.0	0	2	248	0.01	29.720 
07:20	36.3	36.3	36.3	95	35.0	0	2	248	0.00	29.720 
07:25	36.2	36.2	36.2	96	35.2	0	1	248	0.00	29.720 
07:30	36.2	36.2	36.2	96	35.2	0	1	248	0.01	29.722 
07:35	36.2	36.2	36.2	96	35.2	0	0	---	0.00	29.722 
07:40	36.0	36.0	36.0	96	35.0	0	1	248	0.01	29.722 
07:45	36.0	36.0	36.0	96	35.0	0	2	248	0.00	29.723 
07:50	36.0	36.0	36.0	96	35.0	0	1	248	0.01	29.723 
07:55	36.0	36.0	36.0	96	35.0	0	1	248	0.00	29.723 
08:00	36.0	36.0	36.0	96	35.0	0	1	248	0.01	29.724 
08:05	36.2	36.2	36.2	96	35.2	0	2	248	0.00	29.724 
08:10	36.3	36.3	36.3	96	35.3	0	2	248	0.00	29.724 
08:15	36.3	36.3	36.3	96	35.3	0	1	248	0.01	29.726 
08:20	36.3	36.3	36.3	96	35.3	0	1	248	0.00	29.726 
08:25	36.3	36.3	36.3	96	35.3	0	2	248	0.01	29.726 
08:30	36.3	36.3	36.3	96	35.3	0	1	248	0.00	29.733 
08:35	36.3	36.3	36.3	96	35.3	0	2	248	0.00	29.733 
08:40	36.5	36.5	36.5	96	35.5	0	1	248	0.00	29.733 
08:45	36.5	36.5	36.5	96	35.5	0	1	248	0.01	29.737 
08:50	36.5	36.5	36.5	96	35.5	0	1	248	0.00	29.737 
08:55	36.5	36.5	36.5	96	35.5	0	0	---	0.00	29.737 
09:00	36.5	36.5	36.5	96	35.5	0	1	248	0.00	29.741 
09:05	36.6	36.6	36.6	96	35.6	0	2	248	0.01	29.741 
09:10	36.8	36.8	36.8	96	35.8	0	2	248	0.00	29.741 
09:15	36.9	36.9	36.9	96	35.9	0	1	248	0.00	29.743 
09:20	36.9	36.9	36.9	96	35.9	0	1	248	0.00	29.743 
09:25	36.9	36.9	36.9	96	35.9	0	0	---	0.00	29.743 
09:30	36.9	36.9	36.9	96	35.9	0	1	248	0.01	29.744 
09:35	36.9	36.9	36.9	96	35.9	0	1	248	0.00	29.744 
09:40	36.9	36.9	36.9	96	35.9	0	1	248	0.00	29.744 
09:45	36.9	36.9	36.9	96	35.9	0	1	248	0.00	29.747 
09:50	36.8	36.8	36.8	96	35.8	0	1	248	0.00	29.747 
09:55	36.9	36.9	36.9	96	35.9	0	3	248	0.00	29.747 
10:00	36.9	36.9	36.9	96	35.9	1	2	292	0.00	29.742 
10:05	36.9	36.9	36.9	96	35.9	0	2	292	0.01	29.742 
10:10	36.9	36.9	36.9	96	35.9	1	2	292	0.00	29.742 
10:15	36.9	36.9	36.9	96	35.9	0	2	292	0.00	29.747 
10:20	36.9	36.9	36.9	96	35.9	0	1	292	0.00	29.747 
10:25	36.8	36.8	36.8	96	35.8	0	1	292	0.00	29.747 
10:30	36.8	36.8	36.8	96	35.8	0	1	292	0.00	29.750 
10:35	36.8	36.8	36.8	96	35.8	0	1	292	0.00	29.750 
10:40	36.6	36.6	36.6	96	35.6	0	2	292	0.01	29.750 
10:45	36.6	36.6	36.6	96	35.6	0	1	292	0.00	29.755 
10:50	36.6	36.6	36.6	96	35.6	0	3	292	0.00	29.755 
10:55	36.6	36.6	36.6	96	35.6	0	1	292	0.00	29.755 
11:00	36.5	36.5	36.5	96	35.5	0	2	292	0.00	29.757 
11:05	36.5	36.5	36.5	96	35.5	0	3	292	0.00	29.757 
11:10	36.5	36.5	36.5	96	35.5	0	1	292	0.00	29.757 
11:15	36.5	36.5	36.5	96	35.5	0	1	292	0.00	29.756 
11:20	36.5	36.5	36.5	96	35.5	0	1	292	0.01	29.756 
11:25	36.5	36.5	36.5	96	35.5	0	1	292	0.00	29.756 
11:30	36.5	36.5	36.5	96	35.5	0	1	90	0.00	29.753 
11:35	36.6	36.6	36.6	96	35.6	0	1	90	0.00	29.753 
11:40	36.6	36.6	36.6	96	35.6	0	1	90	0.00	29.753 
11:45	36.6	36.6	36.6	96	35.6	0	1	90	0.00	29.757 
11:50	36.6	36.6	36.6	96	35.6	0	0	---	0.00	29.757 
11:55	36.6	36.6	36.6	96	35.6	0	2	292	0.00	29.757 
12:00	36.6	36.6	36.6	96	35.6	0	2	292	0.01	29.752 
12:05	36.5	36.5	36.5	96	35.5	0	2	292	0.00	29.752 
12:10	36.5	36.5	36.5	96	35.5	1	3	292	0.00	29.752 
12:15	36.5	36.5	36.5	96	35.5	1	2	292	0.00	29.749 
12:20	36.3	36.3	36.3	96	35.3	0	1	292	0.00	29.749 
12:25	36.3	36.3	36.3	96	35.3	0	1	292	0.00	29.749 
12:30	36.3	36.3	36.3	96	35.3	0	2	292	0.00	29.748 
12:35	36.3	36.3	36.3	96	35.3	0	1	292	0.00	29.748 
12:40	36.3	36.3	36.3	96	35.3	0	4	292	0.00	29.748 
12:45	36.3	36.3	36.3	96	35.3	1	3	248	0.01	29.746 
12:50	36.3	36.3	36.3	96	35.3	1	4	338	0.00	29.746 
12:55	36.3	36.3	36.3	96	35.3	1	3	338	0.00	29.746 
13:00	36.2	36.2	36.2	95	34.9	1	3	315	0.00	29.739 
13:05	36.5	36.5	36.5	95	35.2	0	2	315	0.00	29.739 
13:10	36.5	36.5	36.5	95	35.2	0	2	315	0.00	29.739 
13:15	36.6	36.6	36.6	95	35.3	0	2	315	0.00	29.732 
13:20	36.5	36.5	36.5	95	35.2	0	3	315	0.00	29.732 
13:25	36.5	36.5	36.5	95	35.2	1	3	315	0.01	29.732 
13:30	36.3	36.3	36.3	95	35.0	0	2	270	0.00	29.731 
13:35	36.3	36.3	36.3	95	35.0	0	2	270	0.00	29.731 
13:40	36.3	36.3	36.3	95	35.0	0	3	0	0.00	29.731 
13:45	36.3	36.3	36.3	95	35.0	1	2	248	0.00	29.730 
13:50	36.2	36.2	36.2	94	34.6	1	3	248	0.00	29.730 
13:55	36.2	36.2	36.2	94	34.6	0	2	248	0.00	29.730 
14:00	36.0	36.0	36.0	94	34.4	1	3	248	0.00	29.731 
14:05	36.0	36.0	36.0	94	34.4	0	2	248	0.00	29.731 
14:10	36.2	36.2	36.2	94	34.6	0	1	248	0.00	29.731 
14:15	36.3	36.3	36.3	94	34.7	0	1	248	0.00	29.730 
14:20	36.3	36.3	36.3	94	34.7	0	2	248	0.00	29.730 
14:25	36.2	36.2	36.2	94	34.6	1	2	248	0.01	29.730 
14:30	36.2	36.2	36.2	93	34.4	1	3	248	0.00	29.730 
14:35	36.3	36.3	36.3	93	34.5	1	3	248	0.00	29.730 
14:40	36.3	36.3	36.3	93	34.5	1	4	270	0.00	29.730 
14:45	36.5	36.5	36.5	92	34.4	0	4	270	0.00	29.731 
14:50	36.6	36.6	36.6	92	34.5	0	2	270	0.00	29.731 
14:55	36.6	36.6	36.6	92	34.5	1	3	270	0.00	29.731 
15:00	36.6	36.6	36.6	91	34.2	1	4	315	0.00	29.732 
15:05	36.8	36.8	36.8	90	34.1	0	2	315	0.00	29.732 
15:10	36.8	36.8	36.8	90	34.1	0	2	315	0.00	29.732 
15:15	36.8	36.8	36.8	89	33.9	0	2	315	0.00	29.741 
15:20	36.8	36.8	36.8	89	33.9	0	1	315	0.00	29.741 
15:25	36.9	36.9	36.9	88	33.7	0	1	315	0.00	29.741 
15:30	36.9	36.9	36.9	88	33.7	0	1	315	0.00	29.745 
15:35	36.9	36.9	36.9	88	33.7	0	1	315	0.01	29.745 
15:40	36.9	36.9	36.9	88	33.7	0	1	315	0.00	29.745 
15:45	36.9	36.9	36.9	87	33.4	0	3	315	0.00	29.747 
15:50	36.9	36.9	36.9	87	33.4	0	2	315	0.00	29.747 
15:55	36.8	36.8	36.8	86	33.0	1	4	315	0.00	29.747 
16:00	36.6	36.6	36.6	86	32.8	1	3	270	0.00	29.753 
16:05	36.5	36.5	36.5	86	32.7	1	3	270	0.00	29.753 
16:10	36.5	36.5	36.5	86	32.7	0	2	292	0.00	29.753 
16:15	36.3	36.3	36.3	85	32.2	1	3	292	0.00	29.764 
16:20	36.3	36.3	36.3	85	32.2	1	3	315	0.00	29.764 
16:25	36.2	36.2	36.2	85	32.1	1	2	315	0.00	29.764 
16:30	36.2	36.2	36.2	85	32.1	1	2	315	0.00	29.771 
16:35	36.0	36.0	36.0	86	32.2	0	3	315	0.00	29.771 
16:40	36.0	36.0	36.0	86	32.2	0	3	292	0.00	29.771 
16:45	35.9	35.9	35.9	86	32.1	0	4	292	0.00	29.778 
16:50	35.9	35.9	35.9	86	32.1	1	3	292	0.00	29.778 
16:55	35.8	35.8	35.8	86	32.0	0	1	292	0.00	29.778 
17:00	35.8	35.8	35.8	87	32.3	0	3	292	0.00	29.781 
17:05	35.6	35.6	35.6	87	32.1	0	2	292	0.00	29.781 
17:10	35.6	35.6	35.6	87	32.1	0	2	292	0.00	29.781 
17:15	35.5	35.5	35.5	87	32.0	0	2	292	0.00	29.791 
17:20	35.5	35.5	35.5	88	32.3	0	2	292	0.00	29.791 
17:25	35.3	35.3	35.3	88	32.1	0	2	292	0.00	29.791 
17:30	35.3	35.3	35.3	88	32.1	0	1	292	0.00	29.797 
17:35	35.2	35.2	35.2	88	32.0	0	1	292	0.00	29.797 
17:40	35.0	35.0	35.0	89	32.1	0	1	292	0.00	29.797 
17:45	35.0	35.0	35.0	89	32.1	0	1	292	0.00	29.805 
17:50	34.9	34.9	34.9	89	32.0	0	0	---	0.00	29.805 
17:55	34.9	34.9	34.9	89	32.0	0	1	292	0.00	29.805 
18:00	34.7	34.7	34.7	90	32.1	0	1	292	0.00	29.810 
18:05	34.7	34.7	34.7	90	32.1	0	1	292	0.00	29.810 
18:10	34.6	34.6	34.6	90	32.0	0	2	292	0.00	29.810 
18:15	34.6	34.6	34.6	90	32.0	0	2	292	0.00	29.811 
18:20	34.4	34.4	34.4	90	31.8	0	1	292	0.00	29.811 
18:25	34.4	34.4	34.4	91	32.0	0	1	292	0.00	29.811 
18:30	34.3	34.3	34.3	91	32.0	0	2	292	0.00	29.815 
18:35	34.3	34.3	34.3	91	32.0	0	2	292	0.00	29.815 
18:40	34.1	34.1	34.1	91	31.8	0	3	292	0.00	29.815 
18:45	34.1	34.1	34.1	91	31.8	0	4	270	0.00	29.819 
18:50	34.0	34.0	34.0	91	31.7	0	3	270	0.00	29.819 
18:55	33.8	33.8	33.8	91	31.5	0	2	270	0.00	29.819 
19:00	33.8	33.8	33.8	91	31.5	0	1	338	0.00	29.826 
19:05	33.8	33.8	33.8	91	31.5	0	4	270	0.00	29.826 
19:10	33.7	33.7	33.7	91	31.4	0	2	270	0.00	29.826 
19:15	33.7	33.7	33.7	91	31.4	1	6	270	0.00	29.828 
19:20	33.5	33.5	33.5	91	31.2	1	2	0	0.00	29.828 
19:25	33.4	33.4	33.4	91	31.1	1	3	315	0.00	29.828 
19:30	33.1	33.1	33.1	91	30.8	1	4	0	0.00	29.833 
19:35	32.9	32.9	32.9	91	30.6	1	3	338	0.00	29.833 
19:40	32.8	32.8	32.8	91	30.5	0	2	338	0.00	29.833 
19:45	32.8	32.8	32.8	90	30.2	0	2	338	0.00	29.841 
19:50	32.7	32.7	32.7	90	30.1	1	4	270	0.00	29.841 
19:55	32.5	32.5	32.5	90	29.9	1	3	22	0.00	29.841 
20:00	32.5	32.5	32.5	89	29.6	1	3	0	0.00	29.845 
20:05	32.5	32.5	32.5	89	29.6	1	3	315	0.00	29.845 
20:10	32.4	32.4	32.4	89	29.5	1	3	22	0.00	29.845 
20:15	32.2	32.2	32.2	89	29.3	1	3	338	0.00	29.846 
20:20	32.1	32.1	32.1	88	29.0	1	4	338	0.00	29.846 
20:25	32.1	32.1	32.1	88	29.0	1	3	292	0.00	29.846 
20:30	31.9	31.9	31.9	88	28.8	1	3	0	0.00	29.847 
20:35	31.9	31.9	31.9	88	28.8	0	2	338	0.00	29.847 
20:40	31.8	31.8	31.8	88	28.7	1	4	270	0.00	29.847 
20:45	31.8	31.8	31.8	87	28.4	1	4	0	0.00	29.848 
20:50	31.8	31.8	31.8	87	28.4	1	5	270	0.00	29.848 
20:55	31.6	31.6	31.6	87	28.2	1	6	292	0.00	29.848 
21:00	31.3	31.3	31.3	87	27.9	1	4	0	0.00	29.858 
21:05	31.3	31.3	31.3	87	27.9	1	4	338	0.00	29.858 
21:10	31.2	31.2	31.2	87	27.8	1	4	338	0.00	29.858 
21:15	31.0	31.0	31.0	87	27.6	1	3	338	0.00	29.860 
21:20	30.9	30.9	30.9	87	27.5	1	4	338	0.00	29.860 
21:25	30.9	30.9	30.9	87	27.5	1	3	270	0.00	29.860 
21:30	30.9	30.9	30.9	87	27.5	0	2	0	0.00	29.861 
21:35	30.7	30.7	30.7	87	27.3	1	3	22	0.00	29.861 
21:40	30.7	30.7	30.7	87	27.3	1	3	270	0.00	29.861 
21:45	30.7	30.7	30.7	87	27.3	1	3	0	0.00	29.863 
21:50	30.7	30.7	30.7	87	27.3	1	3	22	0.00	29.863 
21:55	30.7	30.7	30.7	86	27.0	1	3	315	0.00	29.863 
22:00	30.6	30.6	30.6	86	26.9	1	4	292	0.00	29.864 
22:05	30.6	30.6	30.6	86	26.9	0	4	0	0.00	29.864 
22:10	30.6	30.6	30.6	86	26.9	0	3	0	0.00	29.864 
22:15	30.6	30.6	30.6	87	27.2	0	3	22	0.00	29.871 
22:20	30.4	30.4	30.4	87	27.0	0	3	22	0.00	29.871 
22:25	30.4	30.4	30.4	87	27.0	0	3	45	0.00	29.871 
22:30	30.4	30.4	30.4	87	27.0	0	2	22	0.00	29.871 
22:35	30.3	30.3	30.3	87	26.9	0	2	270	0.00	29.871 
22:40	30.3	30.3	30.3	88	27.2	0	1	22	0.00	29.871 
22:45	30.3	30.3	30.3	88	27.2	0	1	22	0.00	29.875 
22:50	30.3	30.3	30.3	88	27.2	0	2	22	0.00	29.875 
22:55	30.3	30.3	30.3	88	27.2	0	2	22	0.00	29.875 
23:00	30.3	30.3	30.3	88	27.2	0	2	22	0.00	29.870 
23:05	30.3	30.3	30.3	88	27.2	0	1	22	0.00	29.870 
23:10	30.1	30.1	30.1	88	27.0	0	2	22	0.00	29.870 
23:15	30.1	30.1	30.1	88	27.0	0	2	22	0.00	29.868 
23:20	30.1	30.1	30.1	88	27.0	0	2	22	0.00	29.868 
23:25	30.1	30.1	30.1	88	27.0	0	1	22	0.00	29.868 
23:30	30.1	30.1	30.1	88	27.0	0	1	22	0.00	29.877 
23:35	30.1	30.1	30.1	87	26.7	0	1	22	0.00	29.877 
23:40	30.1	30.1	30.1	87	26.7	0	2	22	0.00	29.877 
23:45	30.1	30.1	30.1	87	26.7	0	5	270	0.00	29.880 
23:50	30.1	30.1	30.1	86	26.4	0	3	248	0.00	29.880 
23:55	30.1	30.1	30.1	86	26.4	0	2	270	0.00	29.880 

CoCoRaHS
IN-AL-39
A2 Web Hosting
Creative Commons License
GoDaddy
search engine by freefind advanced

loaded 2018-11-16 11:41:41 • last modified 2010-11-18 10:43:29
Privacy PolicyDisclaimer
• wx.awcolley.com is powered by PmWiki v.2002016 •
• all content (unless otherwise noted) © 2018 A W Colley